Time;durP1;ratioP1;P1;durP2;ratioP2;P2;SDS_P1;SDS_P2;PMS_P1;PMS_P2;Temp;Humidity;BMP_temperature;BMP_pressure;BME280_temperature;BME280_humidity;BME280_pressure;Samples;Min_cycle;Max_cycle;Signal;HPM_P1;HPM_P2
2021/05/15 00:00:07;;;;;;;9.23;4.30;;;9.90;96.60;;;;;;5028465;28;20459;-81
2021/05/15 00:02:32;;;;;;;6.38;4.30;;;9.80;97.20;;;;;;5024028;28;20395;-78
2021/05/15 00:04:58;;;;;;;5.20;4.20;;;10.00;99.00;;;;;;5033108;28;20412;-80
2021/05/15 00:07:23;;;;;;;7.28;4.47;;;10.10;95.50;;;;;;5021278;28;20419;-78
2021/05/15 00:09:49;;;;;;;6.38;4.68;;;10.00;95.50;;;;;;5021824;28;20403;-79
2021/05/15 00:12:15;;;;;;;4.35;3.70;;;9.80;96.30;;;;;;5024887;28;20404;-79
2021/05/15 00:14:40;;;;;;;6.03;4.07;;;9.70;97.30;;;;;;5021778;28;20453;-81
2021/05/15 00:17:06;;;;;;;6.00;4.40;;;9.80;99.90;;;;;;5009421;28;20406;-74
2021/05/15 00:19:31;;;;;;;5.88;4.63;;;9.70;98.40;;;;;;5003822;28;20761;-77
2021/05/15 00:21:57;;;;;;;6.60;5.72;;;9.70;98.60;;;;;;5019200;28;20402;-81
2021/05/15 00:24:23;;;;;;;6.40;5.63;;;9.60;99.00;;;;;;5019230;28;20404;-80
2021/05/15 00:26:48;;;;;;;9.60;6.00;;;9.50;99.50;;;;;;5026092;28;20400;-81
2021/05/15 00:29:14;;;;;;;8.03;6.20;;;9.50;99.90;;;;;;5024297;28;20400;-81
2021/05/15 00:31:39;;;;;;;9.20;6.00;;;9.50;99.90;;;;;;5022230;28;20430;-81
2021/05/15 00:34:05;;;;;;;10.67;6.40;;;9.50;99.90;;;;;;5016251;28;20550;-80
2021/05/15 00:36:31;;;;;;;9.00;6.80;;;9.60;99.90;;;;;;5025352;28;20393;-81
2021/05/15 00:38:56;;;;;;;7.40;6.60;;;9.70;99.90;;;;;;5025580;28;20388;-80
2021/05/15 00:41:22;;;;;;;7.87;6.10;;;9.50;99.90;;;;;;5029493;28;20396;-79
2021/05/15 00:44:13;;;;;;;10.77;6.77;;;9.50;99.90;;;;;;5032411;28;20428;-79
2021/05/15 00:46:39;;;;;;;7.40;6.47;;;9.40;99.90;;;;;;5025023;28;20484;-81
2021/05/15 00:49:06;;;;;;;6.85;5.88;;;9.30;99.90;;;;;;5026354;28;20464;-79
2021/05/15 00:51:32;;;;;;;8.82;6.32;;;9.30;99.90;;;;;;5026082;28;20436;-79
2021/05/15 00:54:00;;;;;;;8.15;5.88;;;9.20;99.90;;;;;;5041179;28;20424;-80
2021/05/15 00:56:28;;;;;;;9.00;6.70;;;9.20;99.90;;;;;;5023677;28;20935;-81
2021/05/15 00:58:55;;;;;;;12.88;6.60;;;9.20;99.90;;;;;;5023382;28;20401;-82
2021/05/15 01:01:21;;;;;;;11.38;7.70;;;9.20;99.90;;;;;;5023509;28;20480;-81
2021/05/15 01:03:46;;;;;;;8.15;6.93;;;9.20;99.90;;;;;;5023608;28;20424;-78
2021/05/15 01:06:12;;;;;;;8.83;7.20;;;9.20;99.90;;;;;;5025879;28;20405;-79
2021/05/15 01:08:42;;;;;;;11.43;7.00;;;9.30;99.90;;;;;;5024907;28;20439;-81
2021/05/15 01:11:08;;;;;;;10.02;7.32;;;9.40;99.90;;;;;;5026807;28;20399;-80
2021/05/15 01:13:35;;;;;;;8.10;6.63;;;9.50;99.90;;;;;;5028134;28;20401;-79
2021/05/15 01:16:01;;;;;;;9.40;6.70;;;9.60;99.90;;;;;;5027135;28;20405;-82
2021/05/15 01:18:27;;;;;;;8.93;7.13;;;9.70;99.90;;;;;;5025850;28;20472;-81
2021/05/15 01:21:01;;;;;;;11.38;7.22;;;9.80;99.90;;;;;;5025936;28;20903;-81
2021/05/15 01:23:27;;;;;;;7.80;7.00;;;9.90;99.90;;;;;;5041323;28;20460;-80
2021/05/15 01:25:52;;;;;;;8.45;6.70;;;10.00;99.90;;;;;;5032853;28;20402;-80
2021/05/15 01:28:18;;;;;;;8.90;7.40;;;10.00;99.90;;;;;;5031749;28;20400;-80
2021/05/15 01:30:44;;;;;;;9.52;6.60;;;10.00;99.90;;;;;;5027937;28;20404;-82
2021/05/15 01:33:09;;;;;;;8.52;7.63;;;10.00;99.90;;;;;;5025641;28;20393;-81
2021/05/15 01:35:35;;;;;;;7.40;6.70;;;9.90;99.90;;;;;;5027144;28;20757;-79
2021/05/15 01:38:00;;;;;;;9.93;7.53;;;10.00;99.90;;;;;;5026748;28;20415;-81
2021/05/15 01:40:27;;;;;;;8.95;8.02;;;9.90;99.90;;;;;;5023999;28;20553;-82
2021/05/15 01:42:52;;;;;;;8.65;7.80;;;9.90;99.90;;;;;;5022405;28;20381;-80
2021/05/15 01:45:18;;;;;;;9.45;8.40;;;9.90;99.90;;;;;;5022963;28;20511;-82
2021/05/15 01:47:44;;;;;;;8.93;8.02;;;10.10;99.90;;;;;;5022727;28;20381;-81
2021/05/15 01:50:14;;;;;;;10.50;8.68;;;10.30;99.90;;;;;;5022433;28;20400;-82
2021/05/15 01:52:40;;;;;;;9.23;8.23;;;10.40;99.90;;;;;;5029542;28;20428;-81
2021/05/15 01:55:16;;;;;;;11.25;7.55;;;10.60;99.90;;;;;;5027298;28;20392;-81
2021/05/15 01:57:41;;;;;;;10.48;8.80;;;10.60;99.90;;;;;;5026638;28;20385;-80
2021/05/15 02:00:08;;;;;;;9.93;8.50;;;10.60;99.90;;;;;;5025785;28;20412;-81
2021/05/15 02:02:33;;;;;;;10.80;8.32;;;10.70;99.90;;;;;;5027059;28;20878;-79
2021/05/15 02:04:59;;;;;;;10.80;9.10;;;10.70;99.90;;;;;;5030010;28;20419;-79
2021/05/15 02:07:24;;;;;;;9.80;8.80;;;10.80;99.90;;;;;;5032632;28;20393;-78
2021/05/15 02:09:50;;;;;;;9.32;8.25;;;10.80;99.90;;;;;;5031360;28;20413;-80
2021/05/15 02:12:15;;;;;;;10.63;8.60;;;10.80;99.80;;;;;;5028518;28;20393;-79
2021/05/15 02:14:41;;;;;;;11.80;8.43;;;10.80;99.50;;;;;;5042349;28;20424;-81
2021/05/15 02:17:07;;;;;;;11.80;9.20;;;10.90;99.10;;;;;;5026882;28;20392;-81
2021/05/15 02:19:32;;;;;;;10.97;8.30;;;10.90;98.20;;;;;;5033953;28;20436;-79
2021/05/15 02:21:58;;;;;;;9.60;7.93;;;10.90;98.50;;;;;;5036109;28;20392;-79
2021/05/15 02:24:23;;;;;;;8.67;7.87;;;11.00;94.40;;;;;;5035844;28;20396;-79
2021/05/15 02:26:49;;;;;;;9.32;7.82;;;11.00;94.80;;;;;;5033526;28;20471;-80
2021/05/15 02:29:14;;;;;;;13.43;7.85;;;10.90;95.00;;;;;;5050189;28;20404;-77
2021/05/15 02:31:40;;;;;;;8.95;8.05;;;10.90;95.10;;;;;;5034658;28;20400;-79
2021/05/15 02:34:05;;;;;;;10.93;8.80;;;11.00;94.90;;;;;;5031685;28;20389;-79
2021/05/15 02:36:31;;;;;;;8.60;7.60;;;10.90;94.90;;;;;;5019825;28;20420;-78
2021/05/15 02:38:57;;;;;;;12.20;8.55;;;10.90;95.60;;;;;;5028426;28;20376;-78
2021/05/15 02:41:23;;;;;;;11.00;8.43;;;10.90;96.00;;;;;;5014308;28;20431;-78
2021/05/15 02:43:48;;;;;;;10.60;8.10;;;10.90;96.20;;;;;;5014510;28;20385;-77
2021/05/15 02:46:14;;;;;;;10.10;8.30;;;10.90;96.30;;;;;;5023938;28;20384;-78
2021/05/15 02:48:39;;;;;;;10.07;8.37;;;10.90;96.20;;;;;;5021506;28;21004;-79
2021/05/15 02:51:05;;;;;;;8.87;7.97;;;10.90;95.40;;;;;;5014233;28;20384;-78
2021/05/15 02:53:31;;;;;;;9.60;7.90;;;10.90;95.50;;;;;;5016035;28;20385;-78
2021/05/15 02:55:56;;;;;;;8.80;7.83;;;11.00;95.90;;;;;;5026424;28;20475;-77
2021/05/15 02:58:22;;;;;;;9.50;8.50;;;11.10;93.50;;;;;;5015817;28;20475;-78
2021/05/15 03:00:47;;;;;;;9.07;8.05;;;11.10;92.50;;;;;;5017856;28;20504;-77
2021/05/15 03:03:13;;;;;;;10.50;8.10;;;11.10;93.50;;;;;;5021165;28;20389;-78
2021/05/15 03:05:38;;;;;;;11.02;8.20;;;11.20;91.30;;;;;;5016658;28;20395;-78
2021/05/15 03:08:04;;;;;;;8.80;7.57;;;11.10;91.20;;;;;;5039084;28;20781;-77
2021/05/15 03:10:30;;;;;;;9.48;8.20;;;11.10;91.80;;;;;;5018421;28;20411;-78
2021/05/15 03:12:56;;;;;;;9.48;8.07;;;11.10;91.70;;;;;;5017425;28;20799;-77
2021/05/15 03:15:23;;;;;;;10.13;8.00;;;11.00;92.00;;;;;;5017493;28;20431;-77
2021/05/15 03:17:51;;;;;;;11.43;7.88;;;11.00;92.30;;;;;;5018542;28;20711;-76
2021/05/15 03:20:20;;;;;;;8.57;7.65;;;11.10;91.40;;;;;;5022411;28;20442;-83
2021/05/15 03:22:46;;;;;;;8.52;7.63;;;11.00;90.60;;;;;;5023001;28;20396;-82
2021/05/15 03:25:13;;;;;;;9.07;7.45;;;11.10;89.90;;;;;;5070484;22;20432;-77
2021/05/15 03:27:39;;;;;;;10.23;7.20;;;11.10;89.70;;;;;;5071166;28;20384;-78
2021/05/15 03:30:07;;;;;;;8.57;7.10;;;11.00;91.10;;;;;;5073258;28;20446;-77
2021/05/15 03:32:33;;;;;;;15.07;7.40;;;11.00;90.00;;;;;;5073028;28;20478;-77
2021/05/15 03:34:59;;;;;;;10.18;8.00;;;11.00;90.50;;;;;;5059888;28;20806;-77
2021/05/15 03:37:24;;;;;;;10.38;7.25;;;11.00;90.10;;;;;;5053933;28;20412;-77
2021/05/15 03:39:50;;;;;;;8.93;6.90;;;11.10;90.50;;;;;;5057405;28;20427;-78
2021/05/15 03:42:16;;;;;;;10.93;7.78;;;11.10;89.90;;;;;;5060216;28;20397;-77
2021/05/15 03:44:41;;;;;;;10.00;7.47;;;11.10;89.50;;;;;;5055972;28;20945;-77
2021/05/15 03:47:07;;;;;;;9.50;7.30;;;11.20;89.10;;;;;;5051344;28;20913;-77
2021/05/15 03:49:32;;;;;;;7.93;7.13;;;11.20;88.60;;;;;;5054844;28;20381;-77
2021/05/15 03:51:59;;;;;;;9.13;7.30;;;11.20;88.50;;;;;;5055738;28;20404;-77
2021/05/15 03:54:25;;;;;;;8.73;6.85;;;11.30;88.20;;;;;;5057078;28;20385;-78
2021/05/15 03:56:51;;;;;;;10.43;6.90;;;11.40;87.30;;;;;;5056939;28;20416;-77
2021/05/15 03:59:17;;;;;;;8.05;6.53;;;11.40;86.60;;;;;;5055553;28;20446;-77
2021/05/15 04:01:42;;;;;;;8.40;6.18;;;11.50;85.00;;;;;;5055009;28;20390;-77
2021/05/15 04:04:08;;;;;;;8.93;6.25;;;11.60;82.30;;;;;;5057270;28;20393;-76
2021/05/15 04:06:33;;;;;;;6.73;6.00;;;11.70;79.10;;;;;;5054720;28;20385;-76
2021/05/15 04:08:59;;;;;;;7.37;6.40;;;11.80;77.60;;;;;;5054628;28;20484;-77
2021/05/15 04:11:33;;;;;;;7.97;5.70;;;11.70;77.60;;;;;;5057815;28;20742;-77
2021/05/15 04:14:06;;;;;;;10.15;5.90;;;11.80;75.40;;;;;;5057303;28;20457;-77
2021/05/15 04:17:19;;;;;;;6.22;5.30;;;11.80;74.10;;;;;;5056511;28;20396;-77
2021/05/15 04:19:17;;;;;;;7.13;5.13;;;11.80;74.10;;;;;;5043187;28;20870;-76
2021/05/15 04:21:43;;;;;;;5.32;4.82;;;11.90;74.00;;;;;;5054172;28;20382;-77
2021/05/15 04:24:10;;;;;;;9.35;5.53;;;11.90;73.90;;;;;;5052743;28;20389;-76
2021/05/15 04:26:36;;;;;;;5.22;4.72;;;11.90;72.40;;;;;;5053908;28;20414;-77
2021/05/15 04:29:01;;;;;;;7.17;5.03;;;12.00;69.70;;;;;;5054915;28;20859;-77
2021/05/15 04:31:28;;;;;;;5.18;4.63;;;12.00;69.30;;;;;;5052298;28;20432;-77
2021/05/15 04:33:53;;;;;;;7.13;5.30;;;12.00;68.70;;;;;;5052752;28;20400;-77
2021/05/15 04:36:19;;;;;;;7.63;5.13;;;12.00;68.60;;;;;;5053724;28;20385;-77
2021/05/15 04:38:44;;;;;;;6.27;4.90;;;12.00;68.90;;;;;;5053383;28;20404;-77
2021/05/15 04:41:10;;;;;;;5.60;5.10;;;12.00;69.30;;;;;;5053146;28;20428;-77
2021/05/15 04:43:35;;;;;;;9.17;5.30;;;12.10;69.30;;;;;;5051211;28;20386;-77
2021/05/15 04:46:01;;;;;;;7.28;5.10;;;12.10;68.20;;;;;;5052732;28;20850;-77
2021/05/15 04:48:26;;;;;;;8.63;5.60;;;12.10;68.30;;;;;;5052398;28;20496;-77
2021/05/15 04:50:52;;;;;;;8.63;5.77;;;12.20;68.70;;;;;;5052517;28;20418;-76
2021/05/15 04:53:17;;;;;;;5.87;5.27;;;12.30;67.20;;;;;;5052274;28;20467;-76
2021/05/15 04:55:43;;;;;;;6.40;5.10;;;12.30;67.60;;;;;;5052584;28;20389;-77
2021/05/15 04:58:09;;;;;;;5.83;5.30;;;12.40;67.10;;;;;;5052281;28;21070;-77
2021/05/15 05:00:34;;;;;;;6.77;5.80;;;12.30;68.40;;;;;;5052894;28;20405;-77
2021/05/15 05:03:00;;;;;;;6.47;5.60;;;12.30;68.80;;;;;;5054203;28;20411;-76
2021/05/15 05:05:25;;;;;;;6.55;5.43;;;12.20;71.50;;;;;;5055779;28;20433;-77
2021/05/15 05:07:51;;;;;;;5.90;5.30;;;12.20;71.20;;;;;;5057210;28;20862;-77
2021/05/15 05:10:17;;;;;;;6.13;4.70;;;12.20;71.60;;;;;;5054935;28;20403;-77
2021/05/15 05:12:42;;;;;;;4.97;4.57;;;12.30;71.90;;;;;;5055202;28;20741;-77
2021/05/15 05:15:08;;;;;;;6.17;4.50;;;12.30;71.90;;;;;;5051252;28;20376;-77
2021/05/15 05:17:33;;;;;;;4.57;4.17;;;12.30;69.50;;;;;;5051308;28;20481;-76
2021/05/15 05:19:59;;;;;;;5.60;4.45;;;12.30;69.20;;;;;;5051373;28;20967;-77
2021/05/15 05:22:25;;;;;;;4.80;4.30;;;12.30;68.20;;;;;;5052114;28;21004;-77
2021/05/15 05:24:50;;;;;;;6.00;4.20;;;12.30;68.20;;;;;;5047280;28;20405;-76
2021/05/15 05:27:22;;;;;;;5.35;4.35;;;12.40;68.10;;;;;;5049252;28;20427;-74
2021/05/15 05:29:47;;;;;;;6.88;4.50;;;12.40;65.90;;;;;;5049727;28;20485;-74
2021/05/15 05:32:13;;;;;;;7.83;4.40;;;12.50;66.40;;;;;;5049890;28;20973;-74
2021/05/15 05:34:39;;;;;;;6.40;4.90;;;12.50;66.60;;;;;;5051134;28;20488;-74
2021/05/15 05:37:05;;;;;;;5.68;4.30;;;12.40;65.10;;;;;;5050778;28;20401;-74
2021/05/15 05:39:32;;;;;;;6.53;4.95;;;12.50;65.70;;;;;;5050897;28;20409;-74
2021/05/15 05:41:59;;;;;;;4.88;4.47;;;12.40;65.20;;;;;;5051502;28;20853;-74
2021/05/15 05:44:25;;;;;;;6.47;4.70;;;12.50;64.60;;;;;;5052043;28;20939;-73
2021/05/15 05:46:51;;;;;;;5.40;4.60;;;12.60;63.80;;;;;;5051421;28;20385;-76
2021/05/15 05:49:16;;;;;;;5.30;4.80;;;12.60;62.00;;;;;;5044976;28;20533;-75
2021/05/15 05:51:42;;;;;;;6.13;4.93;;;12.50;62.80;;;;;;5036261;28;20389;-74
2021/05/15 05:54:07;;;;;;;5.47;4.80;;;12.50;64.30;;;;;;5051031;28;20394;-74
2021/05/15 05:56:34;;;;;;;6.27;5.00;;;12.60;62.40;;;;;;5051730;28;20597;-75
2021/05/15 05:58:59;;;;;;;7.55;5.10;;;12.50;61.80;;;;;;5051886;28;20421;-75
2021/05/15 06:01:25;;;;;;;6.50;4.93;;;12.60;60.80;;;;;;5051538;28;20498;-75
2021/05/15 06:03:51;;;;;;;8.95;5.40;;;12.60;61.40;;;;;;5050057;28;20885;-73
2021/05/15 06:06:16;;;;;;;5.50;5.00;;;12.60;61.10;;;;;;5051852;28;20389;-74
2021/05/15 06:08:42;;;;;;;5.40;4.90;;;12.70;61.90;;;;;;5050902;28;20389;-74
2021/05/15 06:11:08;;;;;;;8.70;6.00;;;12.70;60.50;;;;;;5048803;28;20439;-74
2021/05/15 06:13:33;;;;;;;8.57;6.40;;;12.70;58.80;;;;;;5050957;28;20393;-74
2021/05/15 06:15:59;;;;;;;8.30;6.30;;;12.70;58.80;;;;;;5050586;28;20504;-74
2021/05/15 06:18:24;;;;;;;8.70;6.33;;;12.80;59.10;;;;;;5050374;28;20754;-75
2021/05/15 06:20:50;;;;;;;13.80;9.50;;;12.90;58.60;;;;;;5048215;28;20417;-74
2021/05/15 06:23:16;;;;;;;13.17;8.70;;;12.90;55.90;;;;;;5052592;28;20537;-74
2021/05/15 06:25:43;;;;;;;14.55;8.95;;;12.90;56.80;;;;;;5053691;28;20409;-78
2021/05/15 06:28:09;;;;;;;10.82;8.40;;;12.90;57.00;;;;;;5054136;28;20412;-77
2021/05/15 06:30:35;;;;;;;10.70;8.50;;;12.80;56.90;;;;;;5060518;28;20381;-78
2021/05/15 06:33:00;;;;;;;10.13;7.85;;;12.90;56.30;;;;;;5040345;28;20403;-78
2021/05/15 06:35:26;;;;;;;10.40;8.10;;;12.90;55.90;;;;;;5055955;28;20397;-77
2021/05/15 06:37:52;;;;;;;10.30;7.43;;;12.90;56.00;;;;;;5051150;28;20416;-77
2021/05/15 06:40:18;;;;;;;10.77;8.32;;;13.00;55.30;;;;;;5038788;28;20927;-75
2021/05/15 06:42:44;;;;;;;11.65;8.10;;;13.00;54.30;;;;;;5032062;28;20437;-75
2021/05/15 06:45:10;;;;;;;9.43;7.60;;;13.10;54.10;;;;;;5049375;28;20436;-76
2021/05/15 06:47:37;;;;;;;10.60;7.85;;;13.10;54.70;;;;;;5050334;28;20389;-77
2021/05/15 06:50:05;;;;;;;10.65;7.50;;;13.10;55.30;;;;;;5054504;28;20459;-75
2021/05/15 06:52:30;;;;;;;12.18;6.97;;;13.00;54.10;;;;;;5054374;28;20412;-73
2021/05/15 06:54:56;;;;;;;10.00;7.10;;;13.10;54.40;;;;;;5051038;28;20393;-75
2021/05/15 06:57:21;;;;;;;10.25;7.00;;;13.40;53.20;;;;;;5051550;28;20802;-78
2021/05/15 06:59:48;;;;;;;9.60;7.40;;;13.40;53.50;;;;;;5056422;28;20478;-77
2021/05/15 07:02:13;;;;;;;8.40;7.50;;;13.60;52.00;;;;;;5054372;28;20767;-77
2021/05/15 07:04:39;;;;;;;8.43;6.72;;;13.80;50.80;;;;;;5054150;28;20401;-79
2021/05/15 07:07:09;;;;;;;11.35;7.75;;;14.00;49.20;;;;;;5059252;28;20785;-81
2021/05/15 07:09:35;;;;;;;9.75;7.50;;;14.00;48.30;;;;;;5073456;28;20469;-78
2021/05/15 07:12:27;;;;;;;9.35;8.35;;;14.10;47.00;;;;;;5058651;28;20389;-79
2021/05/15 07:15:31;;;;;;;10.25;7.40;;;14.20;45.80;;;;;;5060584;28;20431;-78
2021/05/15 07:17:56;;;;;;;10.73;8.60;;;14.10;47.20;;;;;;5055096;28;20415;-79
2021/05/15 07:20:22;;;;;;;11.40;8.53;;;14.20;46.60;;;;;;5062469;28;20409;-79
2021/05/15 07:22:48;;;;;;;11.00;8.73;;;14.10;47.10;;;;;;5058410;28;20405;-77
2021/05/15 07:25:13;;;;;;;10.43;7.70;;;14.10;47.10;;;;;;5053615;28;20809;-78
2021/05/15 07:27:39;;;;;;;9.35;7.15;;;14.00;47.40;;;;;;5050750;28;20465;-79
2021/05/15 07:30:06;;;;;;;10.07;7.38;;;14.00;47.80;;;;;;5056819;28;20397;-78
2021/05/15 07:32:32;;;;;;;11.95;8.50;;;14.10;47.80;;;;;;5050630;28;20474;-77
2021/05/15 07:34:58;;;;;;;12.05;8.27;;;14.00;47.20;;;;;;5058128;28;20392;-78
2021/05/15 07:37:24;;;;;;;9.52;8.40;;;14.00;48.60;;;;;;5059423;28;20386;-79
2021/05/15 07:39:50;;;;;;;11.40;8.40;;;13.80;49.00;;;;;;5046252;28;20551;-79
2021/05/15 07:42:16;;;;;;;12.93;8.50;;;13.70;50.40;;;;;;5055165;28;20393;-79
2021/05/15 07:44:41;;;;;;;11.07;8.90;;;13.60;51.60;;;;;;5044381;28;20430;-78
2021/05/15 07:47:07;;;;;;;12.73;9.30;;;13.60;52.40;;;;;;5052232;28;20947;-77
2021/05/15 07:49:33;;;;;;;11.63;8.40;;;13.70;51.80;;;;;;5056265;28;20385;-78
2021/05/15 07:51:59;;;;;;;9.88;7.82;;;13.90;49.90;;;;;;5054030;28;20410;-80
2021/05/15 07:54:24;;;;;;;11.38;8.50;;;14.20;48.00;;;;;;5050273;28;20397;-78
2021/05/15 07:56:50;;;;;;;11.80;9.02;;;14.60;44.20;;;;;;5045595;28;20423;-79
2021/05/15 07:59:16;;;;;;;10.20;8.67;;;14.80;43.30;;;;;;5054006;28;20513;-79
2021/05/15 08:01:42;;;;;;;9.90;8.43;;;15.10;40.70;;;;;;5052564;28;20405;-79
2021/05/15 08:04:08;;;;;;;10.50;8.65;;;15.40;35.20;;;;;;5048318;28;20405;-78
2021/05/15 08:06:34;;;;;;;11.13;8.60;;;15.40;33.00;;;;;;5052445;28;20401;-79
2021/05/15 08:09:00;;;;;;;12.38;9.35;;;15.40;35.10;;;;;;5051016;28;20401;-77
2021/05/15 08:11:26;;;;;;;12.85;10.05;;;15.60;31.60;;;;;;5051613;28;20401;-77
2021/05/15 08:13:54;;;;;;;13.70;10.40;;;15.60;32.40;;;;;;5054507;28;20385;-78
2021/05/15 08:16:20;;;;;;;12.57;10.00;;;15.60;31.60;;;;;;5053576;28;20683;-78
2021/05/15 08:18:46;;;;;;;12.43;10.35;;;15.80;30.80;;;;;;5060595;28;20401;-78
2021/05/15 08:21:12;;;;;;;12.23;10.10;;;15.90;31.90;;;;;;5056969;28;20409;-79
2021/05/15 08:23:41;;;;;;;11.18;9.63;;;15.90;32.30;;;;;;5059956;28;20400;-80
2021/05/15 08:26:10;;;;;;;11.73;9.70;;;15.90;31.70;;;;;;5059454;28;20743;-79
2021/05/15 08:28:40;;;;;;;11.80;9.45;;;15.90;32.00;;;;;;5060907;28;20446;-79
2021/05/15 08:31:08;;;;;;;11.55;9.63;;;16.30;31.70;;;;;;5059666;28;20393;-77
2021/05/15 08:33:33;;;;;;;11.70;9.20;;;16.40;28.60;;;;;;5059793;28;20405;-79
2021/05/15 08:35:59;;;;;;;12.33;9.40;;;16.70;28.10;;;;;;5058702;28;20393;-77
2021/05/15 08:38:24;;;;;;;11.50;9.03;;;16.70;28.70;;;;;;5048758;28;20401;-78
2021/05/15 08:40:50;;;;;;;13.82;9.13;;;16.70;27.20;;;;;;5053870;28;20433;-77
2021/05/15 08:43:16;;;;;;;10.35;8.70;;;16.80;26.50;;;;;;5043270;28;20423;-76
2021/05/15 08:45:42;;;;;;;10.15;9.10;;;17.10;26.40;;;;;;5049808;28;20493;-76
2021/05/15 08:48:11;;;;;;;9.97;8.90;;;17.20;24.80;;;;;;5053317;28;20389;-77
2021/05/15 08:50:39;;;;;;;9.38;8.48;;;17.30;25.00;;;;;;5052721;28;20401;-76
2021/05/15 08:53:04;;;;;;;9.23;8.32;;;17.50;24.40;;;;;;5058042;28;20587;-78
2021/05/15 08:55:32;;;;;;;9.95;8.55;;;17.60;23.80;;;;;;5052624;28;20413;-77
2021/05/15 08:57:59;;;;;;;10.40;7.90;;;17.90;21.60;;;;;;5054802;28;20405;-77
2021/05/15 09:00:29;;;;;;;9.27;8.35;;;18.00;20.30;;;;;;5053578;28;20947;-77
2021/05/15 09:03:01;;;;;;;10.70;8.70;;;17.60;20.20;;;;;;5051303;28;20964;-77
2021/05/15 09:05:28;;;;;;;10.60;8.02;;;17.10;22.90;;;;;;5054692;28;20435;-78
2021/05/15 09:07:57;;;;;;;11.88;8.65;;;16.80;24.90;;;;;;5050541;28;20436;-75
2021/05/15 09:10:28;;;;;;;11.90;9.50;;;16.70;26.00;;;;;;5053573;28;20446;-76
2021/05/15 09:13:05;;;;;;;11.00;9.18;;;16.40;27.70;;;;;;5052783;28;20405;-75
2021/05/15 09:15:45;;;;;;;10.07;9.07;;;16.30;28.70;;;;;;5040590;28;20466;-77
2021/05/15 09:18:16;;;;;;;9.85;8.80;;;16.50;28.10;;;;;;5046407;28;20442;-77
2021/05/15 09:20:42;;;;;;;12.98;10.20;;;16.70;26.40;;;;;;5049959;28;20406;-76
2021/05/15 09:23:20;;;;;;;11.10;9.00;;;16.70;27.00;;;;;;5050557;28;20746;-73
2021/05/15 09:26:00;;;;;;;10.23;8.77;;;16.90;26.30;;;;;;5060211;22;20443;-79
2021/05/15 09:28:35;;;;;;;10.75;9.05;;;16.80;25.40;;;;;;5032572;28;20417;-77
2021/05/15 09:31:25;;;;;;;9.73;8.20;;;16.80;25.10;;;;;;5035186;28;20399;-79
2021/05/15 09:33:59;;;;;;;9.80;7.90;;;16.70;23.60;;;;;;5036518;28;20437;-78
2021/05/15 09:36:27;;;;;;;8.18;7.38;;;16.80;23.40;;;;;;5033716;28;20474;-76
2021/05/15 09:39:02;;;;;;;10.45;7.63;;;16.90;21.30;;;;;;5032763;28;21071;-76
2021/05/15 09:41:38;;;;;;;8.60;7.30;;;16.80;21.50;;;;;;5027611;28;20453;-76
2021/05/15 09:44:05;;;;;;;8.53;7.27;;;16.90;20.00;;;;;;5028931;28;20470;-77
2021/05/15 09:46:34;;;;;;;8.95;6.80;;;17.10;19.70;;;;;;5023986;28;21399;-76
2021/05/15 09:49:00;;;;;;;11.20;7.43;;;17.10;19.50;;;;;;5038568;28;20391;-74
2021/05/15 09:51:26;;;;;;;8.30;6.40;;;17.30;19.30;;;;;;5038386;28;20402;-74
2021/05/15 09:53:52;;;;;;;7.10;5.47;;;17.70;19.00;;;;;;5043048;28;20417;-76
2021/05/15 09:56:31;;;;;;;6.82;6.10;;;18.10;17.90;;;;;;5038306;28;20433;-84
2021/05/15 09:58:57;;;;;;;6.55;5.90;;;18.50;16.20;;;;;;5028403;28;20383;-77
2021/05/15 10:01:26;;;;;;;6.00;5.40;;;18.90;15.60;;;;;;5030186;28;20437;-74
2021/05/15 10:04:02;;;;;;;5.95;5.35;;;19.10;14.40;;;;;;5030613;28;20399;-75
2021/05/15 10:06:28;;;;;;;5.88;5.20;;;19.20;12.70;;;;;;5039536;28;20391;-78
2021/05/15 10:08:54;;;;;;;6.10;4.90;;;19.20;13.60;;;;;;5038386;28;20394;-78
2021/05/15 10:11:21;;;;;;;5.53;4.90;;;19.40;12.60;;;;;;5027116;28;20411;-79
2021/05/15 10:13:47;;;;;;;7.53;5.70;;;19.90;12.10;;;;;;5037589;28;20478;-79
2021/05/15 10:16:13;;;;;;;6.78;4.30;;;20.20;11.90;;;;;;5040035;28;20429;-75
2021/05/15 10:18:38;;;;;;;4.97;4.38;;;20.00;11.80;;;;;;5033550;28;20415;-76
2021/05/15 10:21:04;;;;;;;5.83;4.77;;;19.80;12.00;;;;;;5031971;28;20411;-76
2021/05/15 10:23:37;;;;;;;5.03;4.53;;;19.50;11.50;;;;;;5031403;28;20453;-76
2021/05/15 10:26:17;;;;;;;7.25;5.30;;;19.10;13.10;;;;;;5029210;28;20450;-75
2021/05/15 10:28:45;;;;;;;6.50;4.70;;;18.80;13.80;;;;;;5029496;28;20417;-76
2021/05/15 10:31:17;;;;;;;5.38;4.78;;;18.50;14.90;;;;;;5031465;28;20391;-76
2021/05/15 10:33:48;;;;;;;4.95;4.45;;;18.20;15.60;;;;;;5039040;28;20522;-76
2021/05/15 10:36:24;;;;;;;5.20;4.70;;;17.90;16.10;;;;;;5050813;28;20380;-76
2021/05/15 10:38:51;;;;;;;9.52;5.30;;;17.60;16.90;;;;;;5050843;28;20389;-75
2021/05/15 10:41:20;;;;;;;9.37;5.80;;;17.30;18.40;;;;;;5049765;28;20414;-75
2021/05/15 10:43:48;;;;;;;8.95;6.22;;;16.90;20.60;;;;;;5048946;28;20392;-76
2021/05/15 10:46:25;;;;;;;5.00;4.50;;;16.60;29.90;;;;;;5050503;28;20503;-75
2021/05/15 10:49:09;;;;;;;5.32;4.53;;;16.00;34.10;;;;;;5050659;28;20416;-75
2021/05/15 10:51:40;;;;;;;6.22;4.70;;;15.30;36.60;;;;;;5051178;28;20488;-75
2021/05/15 10:54:07;;;;;;;4.78;3.40;;;14.90;41.50;;;;;;5050547;28;20396;-76
2021/05/15 10:56:33;;;;;;;6.78;4.10;;;14.40;43.90;;;;;;5050400;28;20386;-74
2021/05/15 10:59:08;;;;;;;6.78;4.40;;;14.30;46.70;;;;;;5052942;28;20381;-75
2021/05/15 11:01:48;;;;;;;5.13;3.90;;;14.30;46.00;;;;;;5038241;28;20478;-74
2021/05/15 11:04:26;;;;;;;5.85;4.93;;;14.40;47.60;;;;;;5031511;28;20702;-76
2021/05/15 11:06:58;;;;;;;7.03;5.28;;;14.40;49.30;;;;;;5030327;28;20927;-76
2021/05/15 11:09:25;;;;;;;8.50;6.60;;;14.70;49.20;;;;;;5030311;28;20559;-76
2021/05/15 11:11:52;;;;;;;7.93;6.25;;;15.00;48.00;;;;;;5030494;28;20520;-75
2021/05/15 11:14:41;;;;;;;6.20;5.20;;;15.40;49.70;;;;;;5030330;28;20468;-75
2021/05/15 11:17:11;;;;;;;7.40;5.90;;;15.80;46.00;;;;;;5030478;28;20387;-76
2021/05/15 11:19:38;;;;;;;7.20;5.32;;;16.50;43.50;;;;;;5030138;28;20387;-76
2021/05/15 11:22:04;;;;;;;7.85;6.22;;;17.00;38.80;;;;;;5030779;28;20387;-76
2021/05/15 11:24:31;;;;;;;5.65;5.00;;;17.70;39.20;;;;;;5030059;28;20395;-75
2021/05/15 11:27:08;;;;;;;6.32;4.93;;;18.40;33.80;;;;;;5030520;28;20382;-76
2021/05/15 11:29:35;;;;;;;6.78;5.57;;;18.70;30.40;;;;;;5029854;28;20402;-78
2021/05/15 11:32:07;;;;;;;4.68;3.90;;;18.90;31.30;;;;;;5030119;28;20379;-76
2021/05/15 11:34:33;;;;;;;5.90;4.05;;;18.90;26.00;;;;;;5045033;28;20412;-76
2021/05/15 11:36:58;;;;;;;7.60;5.00;;;18.80;23.60;;;;;;5050062;28;20381;-76
2021/05/15 11:39:24;;;;;;;6.20;4.50;;;18.90;23.80;;;;;;5049863;28;20385;-75
2021/05/15 11:42:08;;;;;;;7.07;4.97;;;19.00;24.70;;;;;;5050343;28;20870;-75
2021/05/15 11:44:38;;;;;;;6.30;4.70;;;19.50;24.70;;;;;;5050091;28;20377;-76
2021/05/15 11:47:08;;;;;;;6.50;4.95;;;19.60;25.50;;;;;;5050217;28;20382;-76
2021/05/15 11:49:34;;;;;;;5.30;4.60;;;19.80;22.10;;;;;;5049835;28;20449;-77
2021/05/15 11:52:05;;;;;;;5.38;4.47;;;19.80;22.60;;;;;;5051459;28;20438;-76
2021/05/15 11:54:32;;;;;;;7.05;5.20;;;19.60;22.00;;;;;;5053399;28;20400;-76
2021/05/15 11:56:58;;;;;;;6.85;5.22;;;19.60;22.90;;;;;;5053756;28;20393;-77
2021/05/15 11:59:24;;;;;;;8.43;5.55;;;19.80;23.50;;;;;;5053401;28;20443;-76
2021/05/15 12:01:50;;;;;;;8.32;5.03;;;19.80;23.50;;;;;;5053740;28;20609;-76
2021/05/15 12:04:25;;;;;;;7.53;5.45;;;20.10;22.80;;;;;;5053324;28;20385;-76
2021/05/15 12:06:54;;;;;;;6.03;5.20;;;20.10;22.80;;;;;;5053428;28;20382;-76
2021/05/15 12:09:21;;;;;;;5.82;5.22;;;20.10;22.20;;;;;;5053352;28;20746;-76
2021/05/15 12:11:47;;;;;;;5.50;4.50;;;20.00;22.30;;;;;;5053272;28;20382;-75
2021/05/15 12:14:16;;;;;;;5.70;5.03;;;20.10;22.60;;;;;;5053190;28;20389;-76
2021/05/15 12:16:42;;;;;;;5.60;5.00;;;19.90;22.80;;;;;;5053302;28;20381;-76
2021/05/15 12:19:27;;;;;;;5.00;4.60;;;20.00;22.40;;;;;;5053216;28;20382;-77
2021/05/15 12:22:03;;;;;;;5.20;4.70;;;20.10;21.40;;;;;;5053134;28;20432;-75
2021/05/15 12:24:37;;;;;;;6.05;5.07;;;20.20;22.20;;;;;;5052949;28;20881;-75
2021/05/15 12:27:14;;;;;;;7.68;4.50;;;20.50;21.20;;;;;;5053891;28;20408;-75
2021/05/15 12:29:42;;;;;;;3.97;3.65;;;20.60;20.90;;;;;;5033936;28;20452;-75
2021/05/15 12:32:09;;;;;;;4.97;2.87;;;21.00;16.10;;;;;;5035077;28;20717;-76
2021/05/15 12:34:35;;;;;;;5.57;3.80;;;21.40;15.40;;;;;;5050641;28;20439;-76
2021/05/15 12:37:11;;;;;;;8.70;2.97;;;21.60;15.10;;;;;;5053912;28;20397;-76
2021/05/15 12:39:37;;;;;;;2.50;2.30;;;21.60;12.50;;;;;;5052985;28;20385;-75
2021/05/15 12:42:03;;;;;;;3.50;1.92;;;21.50;11.30;;;;;;5052609;28;20456;-75
2021/05/15 12:44:37;;;;;;;2.53;1.90;;;21.30;11.20;;;;;;5053320;28;20382;-78
2021/05/15 12:47:03;;;;;;;5.20;2.45;;;21.10;11.60;;;;;;5053784;28;20385;-78